createdAt,value
2017-09-11T00:01:28.934Z,93492.30
2017-09-11T00:03:57.270Z,93497.54
2017-09-11T00:06:25.626Z,93494.88
2017-09-11T00:08:53.962Z,93483.69
2017-09-11T00:11:22.298Z,93487.45
2017-09-11T00:13:50.635Z,93485.44
2017-09-11T00:16:19.014Z,93486.14
2017-09-11T00:18:47.491Z,93472.09
2017-09-11T00:21:15.864Z,93478.35
2017-09-11T00:23:44.200Z,93459.45
2017-09-11T00:26:12.558Z,93464.47
2017-09-11T00:28:40.950Z,93463.94
2017-09-11T00:31:09.318Z,93448.77
2017-09-11T00:33:37.655Z,93442.69
2017-09-11T00:36:06.023Z,93432.94
2017-09-11T00:38:34.420Z,93449.64
2017-09-11T00:41:02.908Z,93439.77
2017-09-11T00:43:31.259Z,93444.45
2017-09-11T00:45:59.594Z,93440.88
2017-09-11T00:48:27.997Z,93443.41
2017-09-11T00:50:56.338Z,93433.31
2017-09-11T00:53:24.951Z,93421.20
2017-09-11T00:55:53.482Z,93418.97
2017-09-11T00:58:22.622Z,93421.12
2017-09-11T01:00:51.062Z,93417.55
2017-09-11T01:03:19.403Z,93410.26
2017-09-11T01:05:47.845Z,93412.02
2017-09-11T01:08:16.238Z,93396.64
2017-09-11T01:10:44.642Z,93400.63
2017-09-11T01:13:13.018Z,93400.37
2017-09-11T01:15:41.410Z,93405.70
2017-09-11T01:18:09.742Z,93392.22
2017-09-11T01:20:38.083Z,93390.09
2017-09-11T01:23:06.477Z,93379.84
2017-09-11T01:25:34.875Z,93366.95
2017-09-11T01:28:03.266Z,93378.23
2017-09-11T01:30:31.654Z,93367.39
2017-09-11T01:32:59.990Z,93360.08
2017-09-11T01:35:28.695Z,93360.78
2017-09-11T01:37:57.034Z,93350.28
2017-09-11T01:40:25.452Z,93360.09
2017-09-11T01:42:54.769Z,93355.24
2017-09-11T01:45:23.670Z,93371.80
2017-09-11T01:47:52.140Z,93366.67
2017-09-11T01:50:20.520Z,93355.28
2017-09-11T01:52:48.858Z,93364.66
2017-09-11T01:55:17.194Z,93365.64
2017-09-11T01:57:45.626Z,93360.41
2017-09-11T02:00:13.954Z,93360.09
2017-09-11T02:02:42.379Z,93349.50
2017-09-11T02:05:10.714Z,93348.66
2017-09-11T02:07:39.066Z,93331.25
2017-09-11T02:10:07.414Z,93354.69
2017-09-11T02:12:35.762Z,93340.69
2017-09-11T02:15:04.143Z,93336.62
2017-09-11T02:17:32.483Z,93337.28
2017-09-11T02:20:00.826Z,93332.25
2017-09-11T02:22:29.158Z,93329.28
2017-09-11T02:24:57.591Z,93343.27
2017-09-11T02:27:25.986Z,93336.48
2017-09-11T02:29:54.318Z,93332.02
2017-09-11T02:32:22.664Z,93320.79
2017-09-11T02:34:50.991Z,93333.91
2017-09-11T02:37:19.332Z,93332.97
2017-09-11T02:39:47.666Z,93324.95
2017-09-11T02:42:16.057Z,93321.34
2017-09-11T02:44:44.524Z,93323.92
2017-09-11T02:47:12.863Z,93325.33
2017-09-11T02:49:41.200Z,93322.25
2017-09-11T02:52:09.528Z,93316.75
2017-09-11T02:54:37.874Z,93314.38
2017-09-11T02:57:06.266Z,93314.45
2017-09-11T02:59:34.603Z,93305.35
2017-09-11T03:02:03.266Z,93303.17
2017-09-11T03:04:31.610Z,93298.70
2017-09-11T03:06:59.938Z,93299.53
2017-09-11T03:09:28.271Z,93302.67
2017-09-11T03:11:56.619Z,93292.13
2017-09-11T03:14:24.951Z,93294.21
2017-09-11T03:16:53.298Z,93291.78
2017-09-11T03:19:21.626Z,93286.98
2017-09-11T03:21:49.952Z,93282.66
2017-09-11T03:24:18.362Z,93291.30
2017-09-11T03:26:46.724Z,93282.16
2017-09-11T03:29:15.050Z,93291.18
2017-09-11T03:31:43.439Z,93292.27
2017-09-11T03:34:11.829Z,93285.02
2017-09-11T03:36:40.162Z,93283.57
2017-09-11T03:39:08.503Z,93286.54
2017-09-11T03:41:36.871Z,93287.21
2017-09-11T03:44:05.294Z,93283.95
2017-09-11T03:46:33.632Z,93285.59
2017-09-11T03:49:02.802Z,93276.28
2017-09-11T03:51:31.182Z,93277.52
2017-09-11T03:53:59.522Z,93277.91
2017-09-11T03:56:27.965Z,93269.21
2017-09-11T03:58:56.357Z,93271.06
2017-09-11T04:01:24.720Z,93266.09
2017-09-11T04:03:53.142Z,93273.53
2017-09-11T04:06:21.525Z,93271.80
2017-09-11T04:08:49.863Z,93264.81
2017-09-11T04:11:18.244Z,93256.79
2017-09-11T04:13:46.613Z,93261.72
2017-09-11T04:16:14.992Z,93260.28
2017-09-11T04:18:43.377Z,93248.80
2017-09-11T04:21:11.794Z,93254.79
2017-09-11T04:23:40.174Z,93259.25
2017-09-11T04:26:08.501Z,93256.41
2017-09-11T04:28:36.862Z,93249.03
2017-09-11T04:31:05.243Z,93248.95
2017-09-11T04:33:33.630Z,93253.12
2017-09-11T04:36:01.964Z,93251.53
2017-09-11T04:38:30.294Z,93254.34
2017-09-11T04:40:58.646Z,93246.56
2017-09-11T04:43:26.982Z,93247.66
2017-09-11T04:45:55.338Z,93247.18
2017-09-11T04:48:23.699Z,93247.45
2017-09-11T04:50:52.078Z,93250.59
2017-09-11T04:53:20.446Z,93250.70
2017-09-11T04:55:48.841Z,93250.80
2017-09-11T04:58:17.193Z,93245.83
2017-09-11T05:00:45.618Z,93238.84
2017-09-11T05:03:13.953Z,93242.19
2017-09-11T05:05:42.290Z,93237.11
2017-09-11T05:08:10.622Z,93235.23
2017-09-11T05:10:38.954Z,93239.63
2017-09-11T05:13:07.316Z,93234.44
2017-09-11T05:15:35.651Z,93238.48
2017-09-11T05:18:04.011Z,93235.52
2017-09-11T05:20:32.347Z,93237.34
2017-09-11T05:23:00.831Z,93247.21
2017-09-11T05:25:29.161Z,93243.56
2017-09-11T05:27:57.513Z,93233.88
2017-09-11T05:30:25.890Z,93237.11
2017-09-11T05:32:54.805Z,93237.92
2017-09-11T05:35:23.154Z,93239.09
2017-09-11T05:37:51.570Z,93244.45
2017-09-11T05:40:19.947Z,93238.88
2017-09-11T05:42:48.298Z,93239.62
2017-09-11T05:45:16.674Z,93243.43
2017-09-11T05:47:45.002Z,93238.46
2017-09-11T05:50:13.339Z,93227.23
2017-09-11T05:52:41.698Z,93224.43
2017-09-11T05:55:10.058Z,93226.95
2017-09-11T05:57:38.394Z,93225.45
2017-09-11T06:00:06.766Z,93226.98
2017-09-11T06:02:35.110Z,93225.20
2017-09-11T06:05:03.496Z,93229.67
2017-09-11T06:07:31.878Z,93222.20
2017-09-11T06:10:00.218Z,93224.55
2017-09-11T06:12:28.571Z,93218.80
2017-09-11T06:14:56.928Z,93221.19
2017-09-11T06:17:25.262Z,93219.19
2017-09-11T06:19:53.648Z,93217.75
2017-09-11T06:22:22.010Z,93214.02
2017-09-11T06:24:50.354Z,93220.01
2017-09-11T06:27:18.710Z,93225.66
2017-09-11T06:29:47.087Z,93226.86
2017-09-11T06:32:15.442Z,93223.11
2017-09-11T06:34:43.808Z,93217.80
2017-09-11T06:37:12.159Z,93219.45
2017-09-11T06:39:40.518Z,93222.12
2017-09-11T06:42:08.859Z,93222.53
2017-09-11T06:44:37.186Z,93217.04
2017-09-11T06:47:05.519Z,93217.02
2017-09-11T06:49:33.855Z,93214.02
2017-09-11T06:52:02.207Z,93217.27
2017-09-11T06:54:30.614Z,93215.78
2017-09-11T06:56:58.968Z,93218.14
2017-09-11T06:59:27.293Z,93219.43
2017-09-11T07:01:55.622Z,93217.16
2017-09-11T07:04:24.030Z,93223.33
2017-09-11T07:06:52.358Z,93223.83
2017-09-11T07:09:20.734Z,93223.19
2017-09-11T07:11:49.090Z,93225.00
2017-09-11T07:14:17.482Z,93226.43
2017-09-11T07:16:45.818Z,93226.58
2017-09-11T07:19:14.197Z,93229.34
2017-09-11T07:21:42.560Z,93226.77
2017-09-11T07:24:10.883Z,93236.77
2017-09-11T07:26:39.337Z,93241.88
2017-09-11T07:29:07.679Z,93239.28
2017-09-11T07:31:36.010Z,93241.83
2017-09-11T07:34:04.348Z,93240.55
2017-09-11T07:36:32.727Z,93244.09
2017-09-11T07:39:01.063Z,93237.62
2017-09-11T07:41:29.513Z,93244.05
2017-09-11T07:43:57.839Z,93249.13
2017-09-11T07:46:26.214Z,93248.16
2017-09-11T07:48:54.550Z,93247.94
2017-09-11T07:51:22.879Z,93247.36
2017-09-11T07:53:51.370Z,93251.31
2017-09-11T07:56:19.691Z,93251.05
2017-09-11T07:58:48.024Z,93251.91
2017-09-11T08:01:16.406Z,93264.28
2017-09-11T08:03:44.749Z,93264.47
2017-09-11T08:06:13.105Z,93266.95
2017-09-11T08:08:41.458Z,93260.09
2017-09-11T08:11:09.823Z,93269.44
2017-09-11T08:13:38.158Z,93270.50
2017-09-11T08:16:06.517Z,93268.59
2017-09-11T08:18:34.957Z,93274.95
2017-09-11T08:21:03.278Z,93273.16
2017-09-11T08:23:31.666Z,93278.45
2017-09-11T08:25:59.991Z,93284.75
2017-09-11T08:28:28.351Z,93302.61
2017-09-11T08:30:56.723Z,93297.58
2017-09-11T08:33:25.090Z,93289.09
2017-09-11T08:35:53.478Z,93280.63
2017-09-11T08:38:21.798Z,93289.08
2017-09-11T08:40:50.167Z,93280.47
2017-09-11T08:43:18.544Z,93285.34
2017-09-11T08:45:46.879Z,93276.09
2017-09-11T08:48:15.299Z,93289.40
2017-09-11T08:50:43.658Z,93289.72
2017-09-11T08:53:11.994Z,93284.00
2017-09-11T08:55:40.354Z,93288.78
2017-09-11T08:58:08.739Z,93278.50
2017-09-11T09:00:37.105Z,93276.53
2017-09-11T09:03:05.458Z,93280.30
2017-09-11T09:05:33.794Z,93266.09
2017-09-11T09:08:02.790Z,93270.63
2017-09-11T09:10:31.127Z,93271.37
2017-09-11T09:12:59.481Z,93267.81
2017-09-11T09:15:27.862Z,93270.22
2017-09-11T09:17:56.230Z,93273.92
2017-09-11T09:20:56.709Z,93273.53
2017-09-11T09:23:25.070Z,93270.20
2017-09-11T09:25:53.403Z,93283.03
2017-09-11T09:28:21.771Z,93288.90
2017-09-11T09:30:50.101Z,93288.55
2017-09-11T09:33:18.467Z,93300.61
2017-09-11T09:35:46.823Z,93305.12
2017-09-11T09:38:15.183Z,93298.66
2017-09-11T09:40:43.750Z,93293.61
2017-09-11T09:43:12.090Z,93298.00
2017-09-11T09:45:40.487Z,93298.47
2017-09-11T09:48:08.818Z,93288.44
2017-09-11T09:50:37.256Z,93287.03
2017-09-11T09:53:05.590Z,93292.00
2017-09-11T09:55:33.920Z,93298.00
2017-09-11T09:58:02.298Z,93280.80
2017-09-11T10:00:30.635Z,93287.91
2017-09-11T10:02:58.962Z,93278.45
2017-09-11T10:05:27.510Z,93278.42
2017-09-11T10:07:55.910Z,93281.79
2017-09-11T10:10:24.246Z,93289.17
2017-09-11T10:12:52.615Z,93296.97
2017-09-11T10:15:20.977Z,93302.25
2017-09-11T10:17:49.311Z,93314.59
2017-09-11T10:20:17.662Z,93310.04
2017-09-11T10:22:45.999Z,93310.08
2017-09-11T10:25:14.347Z,93297.41
2017-09-11T10:27:42.714Z,93296.23
2017-09-11T10:30:11.326Z,93306.40
2017-09-11T10:32:39.662Z,93306.52
2017-09-11T10:35:08.023Z,93292.97
2017-09-11T10:37:36.345Z,93314.84
2017-09-11T10:40:04.709Z,93312.61
2017-09-11T10:42:33.039Z,93308.67
2017-09-11T10:45:01.380Z,93307.58
2017-09-11T10:47:29.717Z,93315.12
2017-09-11T10:49:58.150Z,93305.05
2017-09-11T10:52:26.539Z,93303.72
2017-09-11T10:54:54.925Z,93287.48
2017-09-11T10:57:23.274Z,93286.52
2017-09-11T10:59:51.635Z,93294.44
2017-09-11T11:02:20.035Z,93288.47
2017-09-11T11:04:48.390Z,93291.34
2017-09-11T11:07:16.754Z,93298.23
2017-09-11T11:09:45.090Z,93293.50
2017-09-11T11:12:13.499Z,93304.33
2017-09-11T11:14:41.834Z,93313.07
2017-09-11T11:17:10.162Z,93313.13
2017-09-11T11:19:38.539Z,93318.57
2017-09-11T11:22:06.895Z,93315.27
2017-09-11T11:24:35.285Z,93312.09
2017-09-11T11:27:03.626Z,93315.32
2017-09-11T11:29:31.954Z,93316.05
2017-09-11T11:32:00.288Z,93309.39
2017-09-11T11:34:28.627Z,93308.98
2017-09-11T11:36:56.965Z,93309.98
2017-09-11T11:39:25.306Z,93308.57
2017-09-11T11:41:53.647Z,93312.38
2017-09-11T11:44:21.988Z,93315.25
2017-09-11T11:46:50.327Z,93318.28
2017-09-11T11:49:18.694Z,93318.11
2017-09-11T11:51:47.061Z,93315.49
2017-09-11T11:54:15.399Z,93321.79
2017-09-11T11:56:43.802Z,93328.62
2017-09-11T11:59:12.186Z,93323.87
2017-09-11T12:01:40.582Z,93334.63
2017-09-11T12:04:08.919Z,93332.92
2017-09-11T12:06:37.296Z,93331.75
2017-09-11T12:09:05.638Z,93336.52
2017-09-11T12:11:33.987Z,93349.34
2017-09-11T12:14:02.367Z,93347.63
2017-09-11T12:16:30.697Z,93348.88
2017-09-11T12:18:59.070Z,93353.74
2017-09-11T12:21:27.402Z,93370.61
2017-09-11T12:23:55.750Z,93362.44
2017-09-11T12:26:24.113Z,93355.19
2017-09-11T12:28:52.447Z,93341.20
2017-09-11T12:31:20.806Z,93337.25
2017-09-11T12:33:49.163Z,93347.69
2017-09-11T12:36:17.575Z,93346.70
2017-09-11T12:38:45.959Z,93357.45
2017-09-11T12:41:14.291Z,93353.86
2017-09-11T12:43:42.751Z,93358.73
2017-09-11T12:46:11.105Z,93364.10
2017-09-11T12:48:39.442Z,93357.64
2017-09-11T12:51:07.803Z,93359.56
2017-09-11T12:53:36.134Z,93344.48
2017-09-11T12:56:04.546Z,93343.20
2017-09-11T12:58:32.885Z,93341.02
2017-09-11T13:01:01.247Z,93337.70
2017-09-11T13:03:29.587Z,93334.38
2017-09-11T13:05:57.955Z,93351.05
2017-09-11T13:08:26.330Z,93345.72
2017-09-11T13:10:54.666Z,93361.66
2017-09-11T13:13:23.006Z,93349.64
2017-09-11T13:15:51.408Z,93350.20
2017-09-11T13:18:19.767Z,93353.97
2017-09-11T13:20:48.113Z,93349.89
2017-09-11T13:23:16.481Z,93345.14
2017-09-11T13:25:44.914Z,93349.98
2017-09-11T13:28:13.274Z,93340.96
2017-09-11T13:30:41.606Z,93349.44
2017-09-11T13:33:11.206Z,93353.16
2017-09-11T13:35:39.576Z,93351.84
2017-09-11T13:38:07.911Z,93351.58
2017-09-11T13:40:36.274Z,93354.58
2017-09-11T13:43:04.646Z,93358.97
2017-09-11T13:45:32.981Z,93348.49
2017-09-11T13:48:01.385Z,93358.94
2017-09-11T13:50:29.770Z,93369.03
2017-09-11T13:52:58.105Z,93365.13
2017-09-11T13:55:26.494Z,93367.82
2017-09-11T13:57:54.858Z,93351.44
2017-09-11T14:00:23.203Z,93351.84
2017-09-11T14:02:51.574Z,93358.46
2017-09-11T14:05:20.063Z,93362.45
2017-09-11T14:07:48.395Z,93368.06
2017-09-11T14:10:16.731Z,93367.16
2017-09-11T14:12:45.091Z,93364.42
2017-09-11T14:15:13.504Z,93371.31
2017-09-11T14:17:41.866Z,93379.73
2017-09-11T14:20:10.200Z,93375.07
2017-09-11T14:22:38.558Z,93371.38
2017-09-11T14:25:06.922Z,93373.76
2017-09-11T14:27:35.334Z,93373.45
2017-09-11T14:30:03.755Z,93371.02
2017-09-11T14:32:32.114Z,93370.39
2017-09-11T14:35:00.450Z,93372.84
2017-09-11T14:37:28.826Z,93362.42
2017-09-11T14:39:57.181Z,93376.42
2017-09-11T14:42:25.523Z,93389.52
2017-09-11T14:44:53.897Z,93390.92
2017-09-11T14:47:22.230Z,93385.31
2017-09-11T14:49:50.708Z,93400.08
2017-09-11T14:52:19.086Z,93396.20
2017-09-11T14:54:47.422Z,93403.98
2017-09-11T14:57:15.763Z,93396.33
2017-09-11T14:59:44.123Z,93397.09
2017-09-11T15:02:12.514Z,93395.20
2017-09-11T15:04:40.846Z,93393.87
2017-09-11T15:07:09.278Z,93398.34
2017-09-11T15:09:37.642Z,93397.84
2017-09-11T15:12:05.996Z,93396.81
2017-09-11T15:14:34.462Z,93400.34
2017-09-11T15:17:02.814Z,93412.48
2017-09-11T15:19:31.170Z,93399.86
2017-09-11T15:21:59.898Z,93402.73
2017-09-11T15:24:28.250Z,93398.61
2017-09-11T15:26:56.582Z,93407.70
2017-09-11T15:29:24.914Z,93406.34
2017-09-11T15:31:53.257Z,93400.37
2017-09-11T15:34:21.650Z,93408.47
2017-09-11T15:36:49.987Z,93402.12
2017-09-11T15:39:18.398Z,93403.45
2017-09-11T15:41:46.734Z,93404.36
2017-09-11T15:44:15.086Z,93406.36
2017-09-11T15:46:43.474Z,93407.37
2017-09-11T15:49:11.811Z,93418.92
2017-09-11T15:51:42.002Z,93411.18
2017-09-11T15:54:12.913Z,93417.92
2017-09-11T15:56:45.024Z,93421.41
2017-09-11T15:59:14.522Z,93429.84
2017-09-11T16:01:42.984Z,93437.70
2017-09-11T16:04:11.427Z,93434.17
2017-09-11T16:06:42.669Z,93430.98
2017-09-11T16:09:26.339Z,93435.34
2017-09-11T16:12:04.215Z,93446.77
2017-09-11T16:14:34.867Z,93444.13
2017-09-11T16:17:04.800Z,93456.59
2017-09-11T16:19:42.704Z,93448.73
2017-09-11T16:22:11.318Z,93452.30
2017-09-11T16:24:41.242Z,93446.92
2017-09-11T16:27:09.567Z,93445.60
2017-09-11T16:29:37.961Z,93436.31
2017-09-11T16:32:06.300Z,93428.77
2017-09-11T16:34:34.731Z,93438.09
2017-09-11T16:37:03.062Z,93447.59
2017-09-11T16:39:31.396Z,93439.31
2017-09-11T16:41:59.750Z,93441.36
2017-09-11T16:44:28.225Z,93446.79
2017-09-11T16:46:56.696Z,93439.89
2017-09-11T16:49:25.097Z,93444.32
2017-09-11T16:51:57.231Z,93446.09
2017-09-11T16:54:25.584Z,93440.52
2017-09-11T16:56:54.008Z,93441.97
2017-09-11T16:59:22.386Z,93437.87
2017-09-11T17:01:50.723Z,93439.02
2017-09-11T17:04:19.067Z,93423.33
2017-09-11T17:06:47.447Z,93429.30
2017-09-11T17:09:15.783Z,93437.58
2017-09-11T17:11:44.207Z,93436.40
2017-09-11T17:14:12.546Z,93435.33
2017-09-11T17:16:40.906Z,93439.41
2017-09-11T17:19:09.287Z,93445.61
2017-09-11T17:21:37.987Z,93453.39
2017-09-11T17:24:06.351Z,93446.48
2017-09-11T17:26:34.698Z,93443.61
2017-09-11T17:29:03.258Z,93437.73
2017-09-11T17:31:31.640Z,93440.77
2017-09-11T17:34:00.086Z,93449.34
2017-09-11T17:36:28.971Z,93452.18
2017-09-11T17:38:57.322Z,93451.00
2017-09-11T17:41:25.686Z,93463.41
2017-09-11T17:43:54.212Z,93464.34
2017-09-11T17:46:22.545Z,93466.05
2017-09-11T17:48:50.878Z,93473.78
2017-09-11T17:51:19.315Z,93472.14
2017-09-11T17:53:47.680Z,93468.48
2017-09-11T17:56:16.018Z,93470.08
2017-09-11T17:58:44.711Z,93473.22
2017-09-11T18:01:13.079Z,93470.95
2017-09-11T18:03:41.414Z,93472.78
2017-09-11T18:06:09.759Z,93472.63
2017-09-11T18:08:38.134Z,93472.97
2017-09-11T18:11:06.482Z,93476.26
2017-09-11T18:13:35.125Z,93477.55
2017-09-11T18:16:03.475Z,93485.82
2017-09-11T18:18:31.836Z,93488.33
2017-09-11T18:21:00.179Z,93491.37
2017-09-11T18:23:28.514Z,93496.48
2017-09-11T18:25:56.866Z,93478.41
2017-09-11T18:28:25.435Z,93487.88
2017-09-11T18:30:53.800Z,93485.98
2017-09-11T18:33:22.239Z,93488.58
2017-09-11T18:35:50.662Z,93486.44
2017-09-11T18:38:19.021Z,93486.82
2017-09-11T18:40:47.599Z,93489.05
2017-09-11T18:43:16.688Z,93494.73
2017-09-11T18:45:47.063Z,93501.54
2017-09-11T18:48:15.398Z,93497.13
2017-09-11T18:50:43.734Z,93496.72
2017-09-11T18:53:12.070Z,93496.38
2017-09-11T18:55:40.449Z,93505.97
2017-09-11T18:58:08.806Z,93514.86
2017-09-11T19:00:37.192Z,93505.73
2017-09-11T19:03:05.541Z,93514.27
2017-09-11T19:05:33.919Z,93517.89
2017-09-11T19:08:03.747Z,93516.45
2017-09-11T19:10:32.087Z,93515.06
2017-09-11T19:13:00.429Z,93518.86
2017-09-11T19:15:28.763Z,93518.54
2017-09-11T19:17:57.127Z,93513.30
2017-09-11T19:20:31.576Z,93529.66
2017-09-11T19:23:00.156Z,93515.74
2017-09-11T19:25:28.535Z,93520.48
2017-09-11T19:27:56.898Z,93513.13
2017-09-11T19:30:25.434Z,93517.33
2017-09-11T19:32:53.799Z,93514.68
2017-09-11T19:35:22.138Z,93520.70
2017-09-11T19:37:50.503Z,93507.55
2017-09-11T19:40:19.017Z,93507.64
2017-09-11T19:42:54.331Z,93508.17
2017-09-11T19:45:22.763Z,93515.56
2017-09-11T19:47:51.124Z,93524.94
2017-09-11T19:50:20.676Z,93522.66
2017-09-11T19:52:49.008Z,93528.01
2017-09-11T19:55:17.370Z,93524.97
2017-09-11T19:57:45.723Z,93518.75
2017-09-11T20:00:14.204Z,93514.06
2017-09-11T20:02:42.563Z,93517.16
2017-09-11T20:05:10.930Z,93524.80
2017-09-11T20:07:39.376Z,93525.18
2017-09-11T20:10:07.746Z,93537.09
2017-09-11T20:12:36.098Z,93532.61
2017-09-11T20:15:04.590Z,93520.44
2017-09-11T20:17:32.920Z,93528.83
2017-09-11T20:20:01.263Z,93528.03
2017-09-11T20:22:29.591Z,93537.30
2017-09-11T20:24:57.958Z,93534.19
2017-09-11T20:27:26.334Z,93532.66
2017-09-11T20:29:54.923Z,93529.48
2017-09-11T20:32:23.308Z,93541.83
2017-09-11T20:34:51.725Z,93549.65
2017-09-11T20:37:20.092Z,93544.37
2017-09-11T20:39:48.422Z,93540.79
2017-09-11T20:42:16.767Z,93543.83
2017-09-11T20:44:45.103Z,93547.11
2017-09-11T20:47:13.491Z,93548.69
2017-09-11T20:49:41.850Z,93553.07
2017-09-11T20:52:10.216Z,93554.60
2017-09-11T20:54:38.582Z,93559.34
2017-09-11T20:57:06.956Z,93557.58
2017-09-11T20:59:35.332Z,93559.75
2017-09-11T21:02:03.659Z,93557.64
2017-09-11T21:04:31.995Z,93554.73
2017-09-11T21:07:00.334Z,93566.94
2017-09-11T21:09:28.678Z,93559.91
2017-09-11T21:11:57.047Z,93561.42
2017-09-11T21:14:25.415Z,93562.52
2017-09-11T21:16:53.738Z,93568.61
2017-09-11T21:19:22.111Z,93569.80
2017-09-11T21:21:50.445Z,93566.39
2017-09-11T21:24:18.782Z,93567.12
2017-09-11T21:26:47.129Z,93565.09
2017-09-11T21:29:15.467Z,93578.10
2017-09-11T21:31:43.802Z,93570.72
2017-09-11T21:34:12.141Z,93576.77
2017-09-11T21:36:40.489Z,93577.45
2017-09-11T21:39:08.831Z,93567.20
2017-09-11T21:41:37.509Z,93572.98
2017-09-11T21:44:05.854Z,93573.16
2017-09-11T21:46:34.188Z,93572.30
2017-09-11T21:49:02.517Z,93564.31
2017-09-11T21:51:30.850Z,93566.55
2017-09-11T21:53:59.184Z,93552.48
2017-09-11T21:56:27.515Z,93567.52
2017-09-11T21:58:55.874Z,93561.16
2017-09-11T22:01:24.242Z,93565.02
2017-09-11T22:03:52.627Z,93560.25
2017-09-11T22:06:20.984Z,93574.78
2017-09-11T22:08:49.306Z,93553.81
2017-09-11T22:11:17.643Z,93567.58
2017-09-11T22:13:46.762Z,93568.23
2017-09-11T22:16:15.230Z,93555.70
2017-09-11T22:18:43.562Z,93565.70
2017-09-11T22:21:11.906Z,93561.59
2017-09-11T22:23:40.238Z,93556.76
2017-09-11T22:26:08.654Z,93560.97
2017-09-11T22:28:37.255Z,93538.13
2017-09-11T22:31:05.591Z,93529.07
2017-09-11T22:33:33.923Z,93533.39
2017-09-11T22:36:02.480Z,93538.65
2017-09-11T22:38:30.810Z,93543.66
2017-09-11T22:40:59.139Z,93544.92
2017-09-11T22:43:27.511Z,93530.91
2017-09-11T22:45:55.842Z,93541.59
2017-09-11T22:48:24.222Z,93541.23
2017-09-11T22:50:52.558Z,93537.86
2017-09-11T22:53:20.887Z,93539.63
2017-09-11T22:55:49.232Z,93542.30
2017-09-11T22:58:17.579Z,93539.27
2017-09-11T23:00:45.951Z,93538.66
2017-09-11T23:03:14.302Z,93544.84
2017-09-11T23:05:43.071Z,93539.69
2017-09-11T23:08:11.491Z,93538.06
2017-09-11T23:10:39.826Z,93549.56
2017-09-11T23:13:08.190Z,93560.83
2017-09-11T23:15:36.517Z,93550.63
2017-09-11T23:18:04.918Z,93546.77
2017-09-11T23:20:33.234Z,93562.44
2017-09-11T23:23:01.782Z,93563.76
2017-09-11T23:25:30.118Z,93557.86
2017-09-11T23:27:58.544Z,93565.16
2017-09-11T23:30:26.867Z,93569.02
2017-09-11T23:32:55.230Z,93564.40
2017-09-11T23:35:23.554Z,93566.10
2017-09-11T23:37:51.928Z,93571.66
2017-09-11T23:40:20.258Z,93573.72
2017-09-11T23:42:48.600Z,93568.83
2017-09-11T23:45:16.939Z,93576.41
2017-09-11T23:47:45.415Z,93569.35
2017-09-11T23:50:13.782Z,93574.27
2017-09-11T23:52:42.115Z,93570.15
2017-09-11T23:55:10.486Z,93561.23
2017-09-11T23:57:38.818Z,93567.78
